To NAV CANADA Home Page Login to a new session Search on AWWS site Feedback and Comments Disclaimer Vers la page française équivalente Tips FAQ What's new on the site To the Forecasts and Observations / NOTAM section To "File a Flight Plan" website Publications and other links Update of the User's profile FIC Telephone Numbers My Weather Data Folder Route Weather Data Regional Weather Data Local Weather Data To the Forecasts and Observations / NOTAM section
Request Generated 06/26/2017 at 03:33:41 UTC . Weather information available at that time is displayed.

METAR/TAF

SASKATOON/JOHN G. DIEFENBAKER INTL/SK    

METAR CYXE 260300Z 12006KT 15SM FEW070 FEW270 17/04 A3022 RMK AC1CI1
AC TR SLP244 DENSITY ALT 2000FT=
METAR CYXE 260200Z 12006KT 070V130 15SM FEW070 20/04 A3023 RMK AC1
SLP247 DENSITY ALT 2300FT=
METAR CYXE 260100Z VRB02KT 15SM FEW070 21/04 A3024 RMK CU2 SLP249
DENSITY ALT 2400FT=

TAF CYXE 252338Z 2600/2624 VRB03KT P6SM SCT070 TEMPO 2600/2604 BKN070
FM260400 14008KT P6SM SKC
BECMG 2614/2616 16015G25KT
RMK NXT FCST BY 260600Z=
Your time UTC time
Weather data provided by Environment Canada and NAV CANADA